sensor_id;sensor_type;location;lat;lon;timestamp;temperature;humidity
33837;DHT22;20140;49.356;8.812;2023-03-13T00:01:23;8.20;99.90
33837;DHT22;20140;49.356;8.812;2023-03-13T00:03:49;8.20;99.90
33837;DHT22;20140;49.356;8.812;2023-03-13T00:06:15;8.20;99.90
33837;DHT22;20140;49.356;8.812;2023-03-13T00:08:41;8.30;99.90
33837;DHT22;20140;49.356;8.812;2023-03-13T00:11:09;8.20;99.90
33837;DHT22;20140;49.356;8.812;2023-03-13T00:13:35;8.20;99.90
33837;DHT22;20140;49.356;8.812;2023-03-13T00:16:12;8.30;99.90
33837;DHT22;20140;49.356;8.812;2023-03-13T00:18:38;8.20;99.90
33837;DHT22;20140;49.356;8.812;2023-03-13T00:21:06;8.20;99.90
33837;DHT22;20140;49.356;8.812;2023-03-13T00:23:33;8.20;99.90
33837;DHT22;20140;49.356;8.812;2023-03-13T00:26:01;8.30;99.90
33837;DHT22;20140;49.356;8.812;2023-03-13T00:28:28;8.20;99.90
33837;DHT22;20140;49.356;8.812;2023-03-13T00:33:31;8.10;99.90
33837;DHT22;20140;49.356;8.812;2023-03-13T00:36:02;8.20;99.90
33837;DHT22;20140;49.356;8.812;2023-03-13T00:38:29;8.20;99.90
33837;DHT22;20140;49.356;8.812;2023-03-13T00:40:59;8.30;99.90
33837;DHT22;20140;49.356;8.812;2023-03-13T00:43:25;8.30;99.90
33837;DHT22;20140;49.356;8.812;2023-03-13T00:45:50;8.40;99.90
33837;DHT22;20140;49.356;8.812;2023-03-13T00:48:16;8.50;99.90
33837;DHT22;20140;49.356;8.812;2023-03-13T00:50:41;8.40;99.90
33837;DHT22;20140;49.356;8.812;2023-03-13T00:53:07;8.40;99.90
33837;DHT22;20140;49.356;8.812;2023-03-13T00:55:32;8.40;99.90
33837;DHT22;20140;49.356;8.812;2023-03-13T00:57:58;8.50;99.90
33837;DHT22;20140;49.356;8.812;2023-03-13T01:00:23;8.50;99.90
33837;DHT22;20140;49.356;8.812;2023-03-13T01:02:49;8.50;99.90
33837;DHT22;20140;49.356;8.812;2023-03-13T01:05:14;8.50;99.90
33837;DHT22;20140;49.356;8.812;2023-03-13T01:07:40;8.40;99.90
33837;DHT22;20140;49.356;8.812;2023-03-13T01:10:06;8.50;99.90
33837;DHT22;20140;49.356;8.812;2023-03-13T01:12:32;8.50;99.90
33837;DHT22;20140;49.356;8.812;2023-03-13T01:14:57;8.40;99.90
33837;DHT22;20140;49.356;8.812;2023-03-13T01:17:23;8.50;99.90
33837;DHT22;20140;49.356;8.812;2023-03-13T01:19:48;8.50;99.90
33837;DHT22;20140;49.356;8.812;2023-03-13T01:22:14;8.40;99.90
33837;DHT22;20140;49.356;8.812;2023-03-13T01:24:39;8.40;99.90
33837;DHT22;20140;49.356;8.812;2023-03-13T01:27:05;8.40;99.90
33837;DHT22;20140;49.356;8.812;2023-03-13T01:29:30;8.40;99.90
33837;DHT22;20140;49.356;8.812;2023-03-13T01:31:56;8.50;99.90
33837;DHT22;20140;49.356;8.812;2023-03-13T01:34:21;8.40;99.90
33837;DHT22;20140;49.356;8.812;2023-03-13T01:36:47;8.50;99.90
33837;DHT22;20140;49.356;8.812;2023-03-13T01:39:15;8.50;99.90
33837;DHT22;20140;49.356;8.812;2023-03-13T01:41:41;8.50;99.90
33837;DHT22;20140;49.356;8.812;2023-03-13T01:44:21;8.50;99.90
33837;DHT22;20140;49.356;8.812;2023-03-13T01:46:47;8.50;99.90
33837;DHT22;20140;49.356;8.812;2023-03-13T01:49:17;8.40;99.90
33837;DHT22;20140;49.356;8.812;2023-03-13T01:51:47;8.30;99.90
33837;DHT22;20140;49.356;8.812;2023-03-13T01:54:37;8.40;99.90
33837;DHT22;20140;49.356;8.812;2023-03-13T01:57:19;8.40;99.90
33837;DHT22;20140;49.356;8.812;2023-03-13T01:59:51;8.40;99.90
33837;DHT22;20140;49.356;8.812;2023-03-13T02:02:17;8.40;99.90
33837;DHT22;20140;49.356;8.812;2023-03-13T02:04:47;8.40;99.90
33837;DHT22;20140;49.356;8.812;2023-03-13T02:07:30;8.40;99.90
33837;DHT22;20140;49.356;8.812;2023-03-13T02:09:58;8.30;99.90
33837;DHT22;20140;49.356;8.812;2023-03-13T02:12:32;8.30;99.90
33837;DHT22;20140;49.356;8.812;2023-03-13T02:15:00;8.20;99.90
33837;DHT22;20140;49.356;8.812;2023-03-13T02:17:28;8.30;99.90
33837;DHT22;20140;49.356;8.812;2023-03-13T02:19:54;8.40;99.90
33837;DHT22;20140;49.356;8.812;2023-03-13T02:22:28;8.50;99.90
33837;DHT22;20140;49.356;8.812;2023-03-13T02:27:24;8.40;99.90
33837;DHT22;20140;49.356;8.812;2023-03-13T02:29:50;8.40;99.90
33837;DHT22;20140;49.356;8.812;2023-03-13T02:32:16;8.60;99.90
33837;DHT22;20140;49.356;8.812;2023-03-13T02:34:42;8.50;99.90
33837;DHT22;20140;49.356;8.812;2023-03-13T02:37:08;8.40;99.90
33837;DHT22;20140;49.356;8.812;2023-03-13T02:39:44;8.40;99.90
33837;DHT22;20140;49.356;8.812;2023-03-13T02:42:12;8.50;99.90
33837;DHT22;20140;49.356;8.812;2023-03-13T02:44:40;8.60;99.90
33837;DHT22;20140;49.356;8.812;2023-03-13T02:47:06;8.50;99.90
33837;DHT22;20140;49.356;8.812;2023-03-13T02:49:34;8.50;99.90
33837;DHT22;20140;49.356;8.812;2023-03-13T02:52:20;8.40;99.90
33837;DHT22;20140;49.356;8.812;2023-03-13T02:54:51;8.40;99.90
33837;DHT22;20140;49.356;8.812;2023-03-13T02:57:17;8.30;99.90
33837;DHT22;20140;49.356;8.812;2023-03-13T02:59:43;8.40;99.90
33837;DHT22;20140;49.356;8.812;2023-03-13T03:02:08;8.50;99.90
33837;DHT22;20140;49.356;8.812;2023-03-13T03:04:34;8.60;99.90
33837;DHT22;20140;49.356;8.812;2023-03-13T03:06:59;8.60;99.90
33837;DHT22;20140;49.356;8.812;2023-03-13T03:09:25;8.80;99.90
33837;DHT22;20140;49.356;8.812;2023-03-13T03:11:50;9.10;99.90
33837;DHT22;20140;49.356;8.812;2023-03-13T03:14:16;9.40;99.90
33837;DHT22;20140;49.356;8.812;2023-03-13T03:16:42;9.70;99.90
33837;DHT22;20140;49.356;8.812;2023-03-13T03:19:08;10.00;99.90
33837;DHT22;20140;49.356;8.812;2023-03-13T03:21:35;10.40;99.90
33837;DHT22;20140;49.356;8.812;2023-03-13T03:24:01;10.70;99.90
33837;DHT22;20140;49.356;8.812;2023-03-13T03:26:27;10.80;99.90
33837;DHT22;20140;49.356;8.812;2023-03-13T03:28:52;10.80;99.90
33837;DHT22;20140;49.356;8.812;2023-03-13T03:31:18;11.00;99.90
33837;DHT22;20140;49.356;8.812;2023-03-13T03:33:44;11.30;99.90
33837;DHT22;20140;49.356;8.812;2023-03-13T03:36:13;11.20;99.90
33837;DHT22;20140;49.356;8.812;2023-03-13T03:38:39;11.20;99.90
33837;DHT22;20140;49.356;8.812;2023-03-13T03:41:06;11.20;99.90
33837;DHT22;20140;49.356;8.812;2023-03-13T03:43:33;11.40;99.90
33837;DHT22;20140;49.356;8.812;2023-03-13T03:45:59;11.30;99.90
33837;DHT22;20140;49.356;8.812;2023-03-13T03:48:25;11.40;99.90
33837;DHT22;20140;49.356;8.812;2023-03-13T03:50:50;11.40;99.90
33837;DHT22;20140;49.356;8.812;2023-03-13T03:53:16;11.40;99.90
33837;DHT22;20140;49.356;8.812;2023-03-13T03:55:41;11.40;99.90
33837;DHT22;20140;49.356;8.812;2023-03-13T03:58:07;11.50;99.90
33837;DHT22;20140;49.356;8.812;2023-03-13T04:00:32;11.50;99.90
33837;DHT22;20140;49.356;8.812;2023-03-13T04:02:58;11.50;99.90
33837;DHT22;20140;49.356;8.812;2023-03-13T04:05:24;11.60;99.90
33837;DHT22;20140;49.356;8.812;2023-03-13T04:07:49;11.60;99.90
33837;DHT22;20140;49.356;8.812;2023-03-13T04:10:15;11.60;99.90
33837;DHT22;20140;49.356;8.812;2023-03-13T04:12:41;11.70;99.90
33837;DHT22;20140;49.356;8.812;2023-03-13T04:15:07;11.70;99.90
33837;DHT22;20140;49.356;8.812;2023-03-13T04:17:32;11.60;99.90
33837;DHT22;20140;49.356;8.812;2023-03-13T04:19:58;11.70;99.90
33837;DHT22;20140;49.356;8.812;2023-03-13T04:22:24;11.70;99.90
33837;DHT22;20140;49.356;8.812;2023-03-13T04:24:50;11.70;99.90
33837;DHT22;20140;49.356;8.812;2023-03-13T04:27:15;11.70;99.90
33837;DHT22;20140;49.356;8.812;2023-03-13T04:29:41;11.70;99.90
33837;DHT22;20140;49.356;8.812;2023-03-13T04:32:06;11.70;99.90
33837;DHT22;20140;49.356;8.812;2023-03-13T04:34:33;11.60;99.90
33837;DHT22;20140;49.356;8.812;2023-03-13T04:36:58;11.70;99.90
33837;DHT22;20140;49.356;8.812;2023-03-13T04:39:24;11.70;99.90
33837;DHT22;20140;49.356;8.812;2023-03-13T04:41:51;11.60;99.90
33837;DHT22;20140;49.356;8.812;2023-03-13T04:44:17;11.60;99.90
33837;DHT22;20140;49.356;8.812;2023-03-13T04:46:42;11.60;99.90
33837;DHT22;20140;49.356;8.812;2023-03-13T04:49:08;11.70;99.90
33837;DHT22;20140;49.356;8.812;2023-03-13T04:51:34;11.50;99.90
33837;DHT22;20140;49.356;8.812;2023-03-13T04:53:59;11.60;99.90
33837;DHT22;20140;49.356;8.812;2023-03-13T04:56:26;11.70;99.90
33837;DHT22;20140;49.356;8.812;2023-03-13T04:58:53;11.60;99.90
33837;DHT22;20140;49.356;8.812;2023-03-13T05:01:19;11.70;99.90
33837;DHT22;20140;49.356;8.812;2023-03-13T05:03:45;11.70;99.90
33837;DHT22;20140;49.356;8.812;2023-03-13T05:06:11;11.80;99.90
33837;DHT22;20140;49.356;8.812;2023-03-13T05:08:37;11.80;99.90
33837;DHT22;20140;49.356;8.812;2023-03-13T05:11:03;11.80;99.90
33837;DHT22;20140;49.356;8.812;2023-03-13T05:13:28;11.80;99.90
33837;DHT22;20140;49.356;8.812;2023-03-13T05:15:54;11.80;99.90
33837;DHT22;20140;49.356;8.812;2023-03-13T05:18:19;11.80;99.90
33837;DHT22;20140;49.356;8.812;2023-03-13T05:20:45;11.90;99.90
33837;DHT22;20140;49.356;8.812;2023-03-13T05:23:10;11.80;99.90
33837;DHT22;20140;49.356;8.812;2023-03-13T05:25:36;11.80;99.90
33837;DHT22;20140;49.356;8.812;2023-03-13T05:28:01;11.90;99.90
33837;DHT22;20140;49.356;8.812;2023-03-13T05:30:27;11.90;99.90
33837;DHT22;20140;49.356;8.812;2023-03-13T05:32:52;11.90;99.90
33837;DHT22;20140;49.356;8.812;2023-03-13T05:35:18;11.90;99.90
33837;DHT22;20140;49.356;8.812;2023-03-13T05:37:44;11.80;99.90
33837;DHT22;20140;49.356;8.812;2023-03-13T05:40:11;11.80;99.90
33837;DHT22;20140;49.356;8.812;2023-03-13T05:42:37;11.80;99.90
33837;DHT22;20140;49.356;8.812;2023-03-13T05:45:03;11.80;99.90
33837;DHT22;20140;49.356;8.812;2023-03-13T05:47:28;11.90;99.90
33837;DHT22;20140;49.356;8.812;2023-03-13T05:49:54;11.80;99.90
33837;DHT22;20140;49.356;8.812;2023-03-13T05:52:20;11.80;99.90
33837;DHT22;20140;49.356;8.812;2023-03-13T05:54:45;11.80;99.90
33837;DHT22;20140;49.356;8.812;2023-03-13T05:57:11;11.70;99.90
33837;DHT22;20140;49.356;8.812;2023-03-13T05:59:36;11.80;99.90
33837;DHT22;20140;49.356;8.812;2023-03-13T06:02:01;11.80;99.90
33837;DHT22;20140;49.356;8.812;2023-03-13T06:04:27;11.70;99.90
33837;DHT22;20140;49.356;8.812;2023-03-13T06:06:52;11.80;99.90
33837;DHT22;20140;49.356;8.812;2023-03-13T06:09:18;11.80;99.90
33837;DHT22;20140;49.356;8.812;2023-03-13T06:11:44;11.80;99.90
33837;DHT22;20140;49.356;8.812;2023-03-13T06:14:09;11.80;99.90
33837;DHT22;20140;49.356;8.812;2023-03-13T06:16:35;11.80;99.90
33837;DHT22;20140;49.356;8.812;2023-03-13T06:19:00;11.80;99.90
33837;DHT22;20140;49.356;8.812;2023-03-13T06:21:26;11.90;99.90
33837;DHT22;20140;49.356;8.812;2023-03-13T06:23:53;11.90;99.90
33837;DHT22;20140;49.356;8.812;2023-03-13T06:26:19;11.90;99.90
33837;DHT22;20140;49.356;8.812;2023-03-13T06:28:45;11.90;99.90
33837;DHT22;20140;49.356;8.812;2023-03-13T06:31:11;12.00;99.90
33837;DHT22;20140;49.356;8.812;2023-03-13T06:33:37;12.20;99.90
33837;DHT22;20140;49.356;8.812;2023-03-13T06:36:03;12.20;99.90
33837;DHT22;20140;49.356;8.812;2023-03-13T06:38:29;12.20;99.90
33837;DHT22;20140;49.356;8.812;2023-03-13T06:40:54;12.20;99.90
33837;DHT22;20140;49.356;8.812;2023-03-13T06:43:20;12.20;99.90
33837;DHT22;20140;49.356;8.812;2023-03-13T06:45:46;12.30;99.90
33837;DHT22;20140;49.356;8.812;2023-03-13T06:48:12;12.30;99.90
33837;DHT22;20140;49.356;8.812;2023-03-13T06:50:38;12.40;99.90
33837;DHT22;20140;49.356;8.812;2023-03-13T06:53:04;12.40;99.90
33837;DHT22;20140;49.356;8.812;2023-03-13T06:55:30;12.30;99.90
33837;DHT22;20140;49.356;8.812;2023-03-13T06:57:56;12.40;99.90
33837;DHT22;20140;49.356;8.812;2023-03-13T07:00:22;12.30;99.90
33837;DHT22;20140;49.356;8.812;2023-03-13T07:02:47;12.30;99.90
33837;DHT22;20140;49.356;8.812;2023-03-13T07:05:13;12.30;99.90
33837;DHT22;20140;49.356;8.812;2023-03-13T07:07:39;12.30;99.90
33837;DHT22;20140;49.356;8.812;2023-03-13T07:10:06;12.40;99.90
33837;DHT22;20140;49.356;8.812;2023-03-13T07:12:33;12.40;99.90
33837;DHT22;20140;49.356;8.812;2023-03-13T07:14:59;12.40;99.90
33837;DHT22;20140;49.356;8.812;2023-03-13T07:17:25;12.40;99.90
33837;DHT22;20140;49.356;8.812;2023-03-13T07:19:50;12.40;99.90
33837;DHT22;20140;49.356;8.812;2023-03-13T07:22:16;12.50;99.90
33837;DHT22;20140;49.356;8.812;2023-03-13T07:24:41;12.50;99.90
33837;DHT22;20140;49.356;8.812;2023-03-13T07:27:07;12.50;99.90
33837;DHT22;20140;49.356;8.812;2023-03-13T07:29:33;12.60;99.90
33837;DHT22;20140;49.356;8.812;2023-03-13T07:31:58;12.60;99.90
33837;DHT22;20140;49.356;8.812;2023-03-13T07:34:24;12.60;99.90
33837;DHT22;20140;49.356;8.812;2023-03-13T07:36:49;12.60;99.90
33837;DHT22;20140;49.356;8.812;2023-03-13T07:39:15;12.70;99.90
33837;DHT22;20140;49.356;8.812;2023-03-13T07:41:40;12.70;99.90
33837;DHT22;20140;49.356;8.812;2023-03-13T07:44:06;12.80;99.90
33837;DHT22;20140;49.356;8.812;2023-03-13T07:46:32;12.80;99.90
33837;DHT22;20140;49.356;8.812;2023-03-13T07:48:57;12.80;99.90
33837;DHT22;20140;49.356;8.812;2023-03-13T07:51:24;12.90;99.90
33837;DHT22;20140;49.356;8.812;2023-03-13T07:53:50;13.00;99.90
33837;DHT22;20140;49.356;8.812;2023-03-13T07:56:21;13.00;99.90
33837;DHT22;20140;49.356;8.812;2023-03-13T07:58:47;13.10;99.90
33837;DHT22;20140;49.356;8.812;2023-03-13T08:01:24;13.10;99.90
33837;DHT22;20140;49.356;8.812;2023-03-13T08:03:50;13.10;99.90
33837;DHT22;20140;49.356;8.812;2023-03-13T08:06:18;13.10;99.90
33837;DHT22;20140;49.356;8.812;2023-03-13T08:08:45;13.10;99.90
33837;DHT22;20140;49.356;8.812;2023-03-13T08:11:19;13.10;99.90
33837;DHT22;20140;49.356;8.812;2023-03-13T08:13:45;13.10;99.90
33837;DHT22;20140;49.356;8.812;2023-03-13T08:16:16;13.10;99.90
33837;DHT22;20140;49.356;8.812;2023-03-13T08:18:44;13.10;99.90
33837;DHT22;20140;49.356;8.812;2023-03-13T08:21:16;13.10;99.90
33837;DHT22;20140;49.356;8.812;2023-03-13T08:23:42;13.10;99.90
33837;DHT22;20140;49.356;8.812;2023-03-13T08:26:19;13.10;99.90
33837;DHT22;20140;49.356;8.812;2023-03-13T08:28:46;13.10;99.90
33837;DHT22;20140;49.356;8.812;2023-03-13T08:31:20;13.10;99.90
33837;DHT22;20140;49.356;8.812;2023-03-13T08:33:47;13.10;99.90
33837;DHT22;20140;49.356;8.812;2023-03-13T08:36:18;13.10;99.90
33837;DHT22;20140;49.356;8.812;2023-03-13T08:38:44;13.10;99.90
33837;DHT22;20140;49.356;8.812;2023-03-13T08:41:11;13.10;99.90
33837;DHT22;20140;49.356;8.812;2023-03-13T08:43:37;13.10;99.90
33837;DHT22;20140;49.356;8.812;2023-03-13T08:46:02;13.10;99.90
33837;DHT22;20140;49.356;8.812;2023-03-13T08:48:28;13.20;99.90
33837;DHT22;20140;49.356;8.812;2023-03-13T08:51:11;13.20;99.90
33837;DHT22;20140;49.356;8.812;2023-03-13T08:53:37;13.20;99.90
33837;DHT22;20140;49.356;8.812;2023-03-13T08:56:04;13.20;99.90
33837;DHT22;20140;49.356;8.812;2023-03-13T08:58:31;13.20;99.90
33837;DHT22;20140;49.356;8.812;2023-03-13T09:01:11;13.20;99.90
33837;DHT22;20140;49.356;8.812;2023-03-13T09:03:37;13.30;99.90
33837;DHT22;20140;49.356;8.812;2023-03-13T09:06:04;13.30;99.90
33837;DHT22;20140;49.356;8.812;2023-03-13T09:08:30;13.40;99.90
33837;DHT22;20140;49.356;8.812;2023-03-13T09:11:00;13.40;99.90
33837;DHT22;20140;49.356;8.812;2023-03-13T09:13:27;13.40;99.90
33837;DHT22;20140;49.356;8.812;2023-03-13T09:16:00;13.40;99.90
33837;DHT22;20140;49.356;8.812;2023-03-13T09:18:26;13.40;99.90
33837;DHT22;20140;49.356;8.812;2023-03-13T09:20:52;13.40;99.90
33837;DHT22;20140;49.356;8.812;2023-03-13T09:23:18;13.40;99.90
33837;DHT22;20140;49.356;8.812;2023-03-13T09:25:44;13.40;99.90
33837;DHT22;20140;49.356;8.812;2023-03-13T09:28:10;13.50;99.90
33837;DHT22;20140;49.356;8.812;2023-03-13T09:30:35;13.70;99.90
33837;DHT22;20140;49.356;8.812;2023-03-13T09:33:01;14.00;99.90
33837;DHT22;20140;49.356;8.812;2023-03-13T09:35:26;14.30;99.90
33837;DHT22;20140;49.356;8.812;2023-03-13T09:37:52;14.50;99.90
33837;DHT22;20140;49.356;8.812;2023-03-13T09:40:20;14.40;99.90
33837;DHT22;20140;49.356;8.812;2023-03-13T09:42:50;14.40;99.90
33837;DHT22;20140;49.356;8.812;2023-03-13T09:45:34;14.40;99.90
33837;DHT22;20140;49.356;8.812;2023-03-13T09:48:10;14.30;99.90
33837;DHT22;20140;49.356;8.812;2023-03-13T09:50:44;14.30;99.90
33837;DHT22;20140;49.356;8.812;2023-03-13T09:53:19;14.30;99.90
33837;DHT22;20140;49.356;8.812;2023-03-13T09:55:50;14.30;99.90
33837;DHT22;20140;49.356;8.812;2023-03-13T09:58:22;14.30;99.90
33837;DHT22;20140;49.356;8.812;2023-03-13T10:00:53;14.20;99.90
33837;DHT22;20140;49.356;8.812;2023-03-13T10:03:38;14.20;99.90
33837;DHT22;20140;49.356;8.812;2023-03-13T10:06:14;14.20;99.90
33837;DHT22;20140;49.356;8.812;2023-03-13T10:08:41;14.20;99.90
33837;DHT22;20140;49.356;8.812;2023-03-13T10:11:44;14.20;99.90
33837;DHT22;20140;49.356;8.812;2023-03-13T10:14:29;14.20;99.90
33837;DHT22;20140;49.356;8.812;2023-03-13T10:19:41;14.30;99.90
33837;DHT22;20140;49.356;8.812;2023-03-13T10:22:12;14.30;99.90
33837;DHT22;20140;49.356;8.812;2023-03-13T10:24:53;14.30;99.90
33837;DHT22;20140;49.356;8.812;2023-03-13T10:27:19;14.50;99.90
33837;DHT22;20140;49.356;8.812;2023-03-13T10:29:45;14.50;99.90
33837;DHT22;20140;49.356;8.812;2023-03-13T10:32:12;14.50;99.90
33837;DHT22;20140;49.356;8.812;2023-03-13T10:34:45;14.60;99.90
33837;DHT22;20140;49.356;8.812;2023-03-13T10:37:13;14.70;99.90
33837;DHT22;20140;49.356;8.812;2023-03-13T10:39:39;14.80;99.90
33837;DHT22;20140;49.356;8.812;2023-03-13T10:42:17;15.00;99.90
33837;DHT22;20140;49.356;8.812;2023-03-13T10:44:43;15.10;99.90
33837;DHT22;20140;49.356;8.812;2023-03-13T10:47:10;15.30;99.90
33837;DHT22;20140;49.356;8.812;2023-03-13T10:49:36;15.20;99.90
33837;DHT22;20140;49.356;8.812;2023-03-13T10:52:11;15.30;99.90
33837;DHT22;20140;49.356;8.812;2023-03-13T10:54:50;15.30;99.90
33837;DHT22;20140;49.356;8.812;2023-03-13T10:57:30;15.30;99.90
33837;DHT22;20140;49.356;8.812;2023-03-13T10:59:56;15.50;99.90
33837;DHT22;20140;49.356;8.812;2023-03-13T11:02:26;15.60;99.90
33837;DHT22;20140;49.356;8.812;2023-03-13T11:04:53;15.70;99.90
33837;DHT22;20140;49.356;8.812;2023-03-13T11:07:29;15.80;99.90
33837;DHT22;20140;49.356;8.812;2023-03-13T11:09:58;16.00;99.90
33837;DHT22;20140;49.356;8.812;2023-03-13T11:12:24;16.10;99.90
33837;DHT22;20140;49.356;8.812;2023-03-13T11:14:57;16.20;99.90
33837;DHT22;20140;49.356;8.812;2023-03-13T11:17:31;16.30;99.90
33837;DHT22;20140;49.356;8.812;2023-03-13T11:25:30;16.60;99.90
33837;DHT22;20140;49.356;8.812;2023-03-13T11:33:09;17.00;99.90
33837;DHT22;20140;49.356;8.812;2023-03-13T11:36:09;17.00;99.90
33837;DHT22;20140;49.356;8.812;2023-03-13T11:38:39;16.90;99.90
33837;DHT22;20140;49.356;8.812;2023-03-13T11:43:49;16.70;99.90
33837;DHT22;20140;49.356;8.812;2023-03-13T11:49:17;16.50;99.90
33837;DHT22;20140;49.356;8.812;2023-03-13T11:54:57;16.40;99.90
33837;DHT22;20140;49.356;8.812;2023-03-13T11:57:31;16.40;99.90
33837;DHT22;20140;49.356;8.812;2023-03-13T12:00:08;16.40;99.90
33837;DHT22;20140;49.356;8.812;2023-03-13T12:02:40;16.50;99.90
33837;DHT22;20140;49.356;8.812;2023-03-13T12:05:09;16.60;99.90
33837;DHT22;20140;49.356;8.812;2023-03-13T12:07:39;16.60;99.90
33837;DHT22;20140;49.356;8.812;2023-03-13T12:10:09;16.90;99.90
33837;DHT22;20140;49.356;8.812;2023-03-13T12:12:39;17.00;99.90
33837;DHT22;20140;49.356;8.812;2023-03-13T12:17:51;17.20;99.90
33837;DHT22;20140;49.356;8.812;2023-03-13T12:20:33;17.30;99.90
33837;DHT22;20140;49.356;8.812;2023-03-13T12:23:17;17.40;99.90
33837;DHT22;20140;49.356;8.812;2023-03-13T12:25:57;17.50;99.90
33837;DHT22;20140;49.356;8.812;2023-03-13T12:28:32;17.60;99.90
33837;DHT22;20140;49.356;8.812;2023-03-13T12:33:36;18.10;99.90
33837;DHT22;20140;49.356;8.812;2023-03-13T12:36:11;18.00;99.90
33837;DHT22;20140;49.356;8.812;2023-03-13T12:38:39;17.90;99.90
33837;DHT22;20140;49.356;8.812;2023-03-13T12:41:17;17.90;99.90
33837;DHT22;20140;49.356;8.812;2023-03-13T12:43:47;17.90;99.90
33837;DHT22;20140;49.356;8.812;2023-03-13T13:01:58;17.90;99.90
33837;DHT22;20140;49.356;8.812;2023-03-13T13:04:32;17.90;99.90
33837;DHT22;20140;49.356;8.812;2023-03-13T13:07:04;17.80;99.90
33837;DHT22;20140;49.356;8.812;2023-03-13T13:09:31;17.80;99.90
33837;DHT22;20140;49.356;8.812;2023-03-13T13:14:53;17.90;99.90
33837;DHT22;20140;49.356;8.812;2023-03-13T13:17:28;17.90;99.90
33837;DHT22;20140;49.356;8.812;2023-03-13T13:19:55;18.00;99.90
33837;DHT22;20140;49.356;8.812;2023-03-13T13:25:01;18.20;99.90
33837;DHT22;20140;49.356;8.812;2023-03-13T13:27:47;18.30;99.90
33837;DHT22;20140;49.356;8.812;2023-03-13T13:32:45;19.50;99.90
33837;DHT22;20140;49.356;8.812;2023-03-13T13:37:37;19.20;99.90
33837;DHT22;20140;49.356;8.812;2023-03-13T13:40:22;19.10;99.90
33837;DHT22;20140;49.356;8.812;2023-03-13T13:42:55;19.40;99.90
33837;DHT22;20140;49.356;8.812;2023-03-13T13:45:22;19.80;99.90
33837;DHT22;20140;49.356;8.812;2023-03-13T13:47:49;19.90;99.90
33837;DHT22;20140;49.356;8.812;2023-03-13T13:52:41;20.00;99.90
33837;DHT22;20140;49.356;8.812;2023-03-13T13:55:49;20.20;99.90
33837;DHT22;20140;49.356;8.812;2023-03-13T13:58:05;20.20;99.90
33837;DHT22;20140;49.356;8.812;2023-03-13T14:00:39;19.90;99.90
33837;DHT22;20140;49.356;8.812;2023-03-13T14:03:17;20.20;99.90
33837;DHT22;20140;49.356;8.812;2023-03-13T14:05:42;20.50;99.90
33837;DHT22;20140;49.356;8.812;2023-03-13T14:08:30;21.70;99.90
33837;DHT22;20140;49.356;8.812;2023-03-13T14:13:43;21.90;99.90
33837;DHT22;20140;49.356;8.812;2023-03-13T14:16:24;22.70;99.90
33837;DHT22;20140;49.356;8.812;2023-03-13T14:18:51;22.50;99.90
33837;DHT22;20140;49.356;8.812;2023-03-13T14:21:20;23.30;99.50
33837;DHT22;20140;49.356;8.812;2023-03-13T14:23:46;23.30;99.10
33837;DHT22;20140;49.356;8.812;2023-03-13T14:26:17;23.00;98.40
33837;DHT22;20140;49.356;8.812;2023-03-13T14:28:44;22.90;99.10
33837;DHT22;20140;49.356;8.812;2023-03-13T14:31:09;23.00;98.40
33837;DHT22;20140;49.356;8.812;2023-03-13T14:33:36;22.30;99.00
33837;DHT22;20140;49.356;8.812;2023-03-13T14:36:01;21.60;99.90
33837;DHT22;20140;49.356;8.812;2023-03-13T14:38:27;21.80;99.70
33837;DHT22;20140;49.356;8.812;2023-03-13T14:40:57;21.90;99.90
33837;DHT22;20140;49.356;8.812;2023-03-13T14:43:30;22.90;99.60
33837;DHT22;20140;49.356;8.812;2023-03-13T14:45:56;23.10;99.20
33837;DHT22;20140;49.356;8.812;2023-03-13T14:48:26;23.50;97.40
33837;DHT22;20140;49.356;8.812;2023-03-13T14:50:52;23.20;97.70
33837;DHT22;20140;49.356;8.812;2023-03-13T14:53:19;23.10;98.70
33837;DHT22;20140;49.356;8.812;2023-03-13T14:55:46;23.40;98.80
33837;DHT22;20140;49.356;8.812;2023-03-13T14:58:27;23.50;97.30
33837;DHT22;20140;49.356;8.812;2023-03-13T15:00:53;23.50;98.00
33837;DHT22;20140;49.356;8.812;2023-03-13T15:03:20;23.10;98.30
33837;DHT22;20140;49.356;8.812;2023-03-13T15:08:12;22.30;98.90
33837;DHT22;20140;49.356;8.812;2023-03-13T15:10:38;21.80;99.90
33837;DHT22;20140;49.356;8.812;2023-03-13T15:15:49;22.00;99.90
33837;DHT22;20140;49.356;8.812;2023-03-13T15:20:41;21.70;99.90
33837;DHT22;20140;49.356;8.812;2023-03-13T15:23:08;21.50;99.90
33837;DHT22;20140;49.356;8.812;2023-03-13T15:25:35;21.30;99.90
33837;DHT22;20140;49.356;8.812;2023-03-13T15:28:00;21.20;99.90
33837;DHT22;20140;49.356;8.812;2023-03-13T15:30:26;21.00;99.90
33837;DHT22;20140;49.356;8.812;2023-03-13T15:32:51;21.20;99.90
33837;DHT22;20140;49.356;8.812;2023-03-13T15:35:30;21.80;99.90
33837;DHT22;20140;49.356;8.812;2023-03-13T15:37:56;21.80;99.90
33837;DHT22;20140;49.356;8.812;2023-03-13T15:40:22;21.40;99.90
33837;DHT22;20140;49.356;8.812;2023-03-13T15:42:48;21.00;99.90
33837;DHT22;20140;49.356;8.812;2023-03-13T15:45:14;20.80;99.90
33837;DHT22;20140;49.356;8.812;2023-03-13T15:47:40;20.60;99.90
33837;DHT22;20140;49.356;8.812;2023-03-13T15:50:12;20.50;99.90
33837;DHT22;20140;49.356;8.812;2023-03-13T15:52:38;20.40;99.90
33837;DHT22;20140;49.356;8.812;2023-03-13T15:55:04;20.40;99.90
33837;DHT22;20140;49.356;8.812;2023-03-13T15:57:32;20.30;99.90
33837;DHT22;20140;49.356;8.812;2023-03-13T15:59:57;20.30;99.90
33837;DHT22;20140;49.356;8.812;2023-03-13T16:02:23;20.20;99.90
33837;DHT22;20140;49.356;8.812;2023-03-13T16:04:49;20.10;99.90
33837;DHT22;20140;49.356;8.812;2023-03-13T16:07:15;20.10;99.90
33837;DHT22;20140;49.356;8.812;2023-03-13T16:09:42;20.10;99.90
33837;DHT22;20140;49.356;8.812;2023-03-13T16:12:07;20.00;99.90
33837;DHT22;20140;49.356;8.812;2023-03-13T16:14:33;19.90;99.90
33837;DHT22;20140;49.356;8.812;2023-03-13T16:16:59;19.90;99.90
33837;DHT22;20140;49.356;8.812;2023-03-13T16:19:27;19.70;99.90
33837;DHT22;20140;49.356;8.812;2023-03-13T16:21:52;19.70;99.90
33837;DHT22;20140;49.356;8.812;2023-03-13T16:24:18;19.60;99.90
33837;DHT22;20140;49.356;8.812;2023-03-13T16:26:43;19.60;99.90
33837;DHT22;20140;49.356;8.812;2023-03-13T16:29:10;19.40;99.90
33837;DHT22;20140;49.356;8.812;2023-03-13T16:31:35;19.30;99.90
33837;DHT22;20140;49.356;8.812;2023-03-13T16:34:01;19.30;99.90
33837;DHT22;20140;49.356;8.812;2023-03-13T16:36:28;19.10;99.90
33837;DHT22;20140;49.356;8.812;2023-03-13T16:38:56;19.20;99.90
33837;DHT22;20140;49.356;8.812;2023-03-13T16:41:22;18.70;99.90
33837;DHT22;20140;49.356;8.812;2023-03-13T16:43:48;18.30;99.90
33837;DHT22;20140;49.356;8.812;2023-03-13T16:46:17;17.90;99.90
33837;DHT22;20140;49.356;8.812;2023-03-13T16:48:44;17.60;99.90
33837;DHT22;20140;49.356;8.812;2023-03-13T16:51:20;17.50;99.90
33837;DHT22;20140;49.356;8.812;2023-03-13T16:53:46;17.20;99.90